KMWA/MWA METAR and TAF weather

Enter ICAO airport designator
Station Type Date Time Source
KMWA METAR 2022/01/29 10:15 UTC NOAA

KMWA 291015Z AUTO 00000KT 10SM CLR M12/M14 A3036 RMK AO2 T11211136


Station Type Date Time Source
KMWA Decoded METAR 2022/01/29 10:15 UTC NOAA

Marion, Williamson County Regional Airport, IL, United States (KMWA) 37-45-01N 089-00-04W
Jan 29, 2022 - 05:15 AM EST / 2022.01.29 1015 UTC
Wind: Calm:0
Visibility: 10 mile(s):0
Sky conditions: clear
Temperature: 10.2 F (-12.1 C)
Dew Point: 7.5 F (-13.6 C)
Relative Humidity: 88%
Pressure (altimeter): 30.36 in. Hg (1028 hPa)
ob: KMWA 291015Z AUTO 00000KT 10SM CLR M12/M14 A3036 RMK AO2 T11211136
cycle: 10

Station Type Date Time Source
KMWA TAF UTC NOAA

Error!

Example: see airport list